Share

Lanai City, HI

9:27 PM HST on April 22, 2014 (GMT -1000)
Lanai City (PHNY) Elev 1309 ft | 20.79 °N, 156.95 °W | Change Station

Current weather conditions updated 31 minutes ago

Partly Cloudy
Partly Cloudy
70 °F
Feels Like 70 °F
N
14
Wind Variable Wind from NNE
Sunrise 6:03 AM
Sunset 6:49 PM
Moon Last Quarter

Tomorrow is forecast to be Cooler than today.

Pressure 30.07 in
Visibility 10.0 miles
Clouds Few 2700 ft
Dew Point 64 °F
Humidity 81%
Rainfall 0.00 in
Snow Depth Not available.
UV 0 out of 16
Pollen Not available.
Air Quality Not available.
Flu Activity Local Activity
METAR PHNY 230656Z AUTO 03012KT 10SM FEW027 21/18 A3013 RMK AO2 TSNO T02110177 SLP182 $

More Conditions Fewer Conditions

Pressure 30.07 in
Visibility 10.0 miles
Clouds Few 2700 ft
Dew Point 64 °F
Humidity 81%
Rainfall 0.00 in
Snow Depth Not available.
UV 0 out of 16
Pollen Not available.
Air Quality Not available.
Flu Activity Local Activity
METAR PHNY 230656Z AUTO 03012KT 10SM FEW027 21/18 A3013 RMK AO2 TSNO T02110177 SLP182 $

More Conditions Fewer Conditions

10-Day Weather Forecast

Almanac

Astronomy

Apr. 22, 2014 Rise Set
Actual Time 6:03 AM HST 6:49 PM HST
Civil Twilight 5:40 AM HST 7:12 PM HST
Nautical Twilight 5:13 AM HST 7:38 PM HST
Astronomical Twilight 4:46 AM HST 8:06 PM HST
Moon 1:08 AM HST (4/22) 12:52 PM HST (4/22)
Length of Visible Light 13h 31m
Length of Day
12h 45m
Tomorrow will be 1m 5s longer.
Last Quarter, 39% of the Moon is Illuminated
Apr 23
Last Quarter
Apr 29
New
May 6
First Quarter
May 14
Full
May 21
Last Quarter

Yesterday's Extremes

State Highs State Lows

Community

  • April Sunset
    April Sunset
  • Waiting..
    Waiting..
  • Sunset...
    Sunset...
  • Happy outdoor day
    Happy outdoor day
  • mystic afternoon....
    mystic afternoon....

WunderPhotos

Upload Photos

1,704,233 photos uploaded!

WunderBlogs® & News

By Dr. Jeff Masters
Director of Meteorology, Weather Underground
By Kari Strenfel
Meteorologist, Weather Underground
By Christopher C. Burt
Weather Historian, Weather Underground
April 23, 2014
April 22, 2014
April 22, 2014

Nearby

Snow Depth

Station Depth Elevation
No new snow has been reported.

Coastal Water Temperatures

Place Temperature
No Stations Reporting

Earthquake Activity

City Distance Mag. Time & Date
No recent earthquake activity has been reported nearby.
Minimum magnitude displayed is 2.5.

Nearby Weather Stations

Station Location Temp. Heat Index Dew Point Humidity Wind Precip. Elev Updated Type
Launiupoko, Lahaina, HI 74.0 °F 76 °F 63 °F 68% SE  at  2.0 mph 0.00 in / hr 801 ft 9:21 PM HST Normal
Kahana Nui Rd., Lahaina, HI 73.7 °F 75 °F 66 °F 77% NE  at  7.0 mph 0.00 in / hr 52 ft 9:00 PM HST Normal
The Ridge at Kapalua, Kapalua, HI 73.7 °F 74 °F 66 °F 78% ENE  at  5.0 mph 0.00 in / hr 100 ft 9:25 PM HST Normal

Show More Stations Show Fewer Stations

What do you think?

We're not finished. Please let us know what you like, what you don't like, and what you are still missing.